Jasper, Texas
Current Conditions -  °F | °C
As of 12:35 AM on Thursday 27 Nov 2014 (Local Time) from KJAS Reporting Station
Clear Clear  
Wind Chill: 47°   Ceiling: Unl
Heat Index: 47°   Visibility: 10mi
Dew Point: 40°   Wind: 3mph
Humidity: 76%   Direction: 340°NNW
Pressure: 30.36"   Gusts: NA
Location:  30.92°N, 94°W
Report Text: KJAS 270635Z AUTO 34003KT 10SM CLR 08/04 A3036 RMK AO2 T00820042
Loading
Personal Weather Stations






























Interactive Weather Map New forecast layout! Learn more

10-Day Weather Forecast

Advertisements
Track Severe Weather on mobile